Time;durP1;ratioP1;P1;durP2;ratioP2;P2;SDS_P1;SDS_P2;PMS_P1;PMS_P2;Temp;Humidity;BMP_temperature;BMP_pressure;BME280_temperature;BME280_humidity;BME280_pressure;Samples;Min_cycle;Max_cycle;Signal;HPM_P1;HPM_P2
2022/05/11 00:00:57;;;;;;;37.80;35.35;;;;;;;11.87;100.00;101397.47;5078858;28;20079;-85
2022/05/11 00:03:26;;;;;;;39.08;36.00;;;;;;;11.85;100.00;101393.38;5064451;28;20037;-84
2022/05/11 00:06:10;;;;;;;39.22;36.42;;;;;;;10.83;100.00;101389.38;5066774;28;20052;-85
2022/05/11 00:08:40;;;;;;;40.35;37.65;;;;;;;10.70;100.00;101383.94;5080537;28;20109;-84
2022/05/11 00:11:34;;;;;;;42.78;39.88;;;;;;;11.30;100.00;101385.25;5076911;28;20461;-85
2022/05/11 00:14:06;;;;;;;38.92;35.85;;;;;;;11.16;100.00;101386.16;5070418;28;20045;-87
2022/05/11 00:16:46;;;;;;;36.67;34.30;;;;;;;10.62;100.00;101382.25;5079553;28;20443;-86
2022/05/11 00:19:21;;;;;;;39.03;36.13;;;;;;;10.36;100.00;101389.94;5073861;28;20048;-85
2022/05/11 00:22:06;;;;;;;40.33;37.13;;;;;;;10.93;100.00;101392.53;5081449;28;20059;-86
2022/05/11 00:24:33;;;;;;;39.00;36.10;;;;;;;11.02;100.00;101384.44;5073140;28;20110;-84
2022/05/11 00:27:01;;;;;;;37.05;34.30;;;;;;;10.17;100.00;101386.03;5081201;28;20044;-84
2022/05/11 00:30:07;;;;;;;39.42;36.53;;;;;;;10.27;100.00;101390.06;5080331;28;20056;-85
2022/05/11 00:32:49;;;;;;;53.33;47.83;;;;;;;10.94;100.00;101380.88;5080271;28;20106;-86
2022/05/11 00:38:44;;;;;;;47.65;43.45;;;;;;;11.02;100.00;101384.44;5076775;28;20039;-87
2022/05/11 00:41:23;;;;;;;46.88;42.78;;;;;;;10.81;100.00;101375.47;5062622;28;20049;-86
2022/05/11 00:44:04;;;;;;;51.38;46.78;;;;;;;10.23;100.00;101379.97;5072512;28;20117;-84
2022/05/11 00:46:52;;;;;;;50.55;45.63;;;;;;;10.05;100.00;101369.78;5077099;28;20059;-84
2022/05/11 00:49:43;;;;;;;49.05;44.13;;;;;;;9.84;100.00;101376.66;5077432;28;20109;-87
2022/05/11 00:52:23;;;;;;;44.90;40.88;;;;;;;9.91;100.00;101376.72;5078907;28;20131;-86
2022/05/11 00:54:56;;;;;;;47.10;42.92;;;;;;;10.31;100.00;101370.06;5077764;28;20072;-84
2022/05/11 00:57:30;;;;;;;44.15;40.63;;;;;;;10.02;100.00;101376.25;5075966;28;20558;-85
2022/05/11 01:00:35;;;;;;;41.10;38.20;;;;;;;10.47;100.00;101373.53;5066125;28;20048;-84
2022/05/11 01:03:16;;;;;;;39.97;37.05;;;;;;;9.75;100.00;101371.63;5064731;28;20469;-86
2022/05/11 01:05:53;;;;;;;42.20;38.67;;;;;;;9.84;100.00;101371.34;5077823;28;20056;-86
2022/05/11 01:08:23;;;;;;;44.22;40.83;;;;;;;10.16;100.00;101361.28;5072864;28;20059;-84
2022/05/11 01:11:10;;;;;;;40.17;37.22;;;;;;;9.59;100.00;101367.31;5077217;28;20120;-86
2022/05/11 01:13:43;;;;;;;40.42;37.47;;;;;;;10.04;100.00;101373.41;5070245;28;20106;-84
2022/05/11 01:16:30;;;;;;;38.63;35.03;;;;;;;9.42;100.00;101372.00;5057708;28;20049;-85
2022/05/11 01:19:07;;;;;;;41.08;37.97;;;;;;;9.70;100.00;101374.81;5069283;28;20048;-84
2022/05/11 01:22:03;;;;;;;38.95;36.03;;;;;;;9.35;100.00;101373.75;5077942;28;20459;-85
2022/05/11 01:24:46;;;;;;;41.80;37.95;;;;;;;9.21;100.00;101374.53;5076870;28;20055;-87
2022/05/11 01:27:43;;;;;;;41.22;37.70;;;;;;;9.11;100.00;101366.88;5076876;28;20045;-84
2022/05/11 01:30:28;;;;;;;42.28;38.72;;;;;;;9.68;100.00;101378.66;5055895;28;20087;-86
2022/05/11 01:32:59;;;;;;;38.22;35.15;;;;;;;9.66;100.00;101381.53;5077636;28;20487;-86
2022/05/11 01:35:46;;;;;;;38.53;35.70;;;;;;;9.56;100.00;101376.50;5077084;28;20090;-87
2022/05/11 01:38:46;;;;;;;39.72;36.92;;;;;;;9.67;100.00;101382.34;5065200;28;20457;-86
2022/05/11 01:41:52;;;;;;;37.97;35.25;;;;;;;9.82;100.00;101378.66;5035277;28;20053;-85
2022/05/11 01:44:22;;;;;;;34.80;32.38;;;;;;;9.16;100.00;101380.38;5078213;28;20141;-87
2022/05/11 01:46:51;;;;;;;35.13;32.72;;;;;;;9.38;100.00;101378.69;5077259;28;20110;-85
2022/05/11 01:49:22;;;;;;;37.47;34.78;;;;;;;9.47;100.00;101385.56;5076974;28;20481;-86
2022/05/11 01:52:19;;;;;;;36.25;33.55;;;;;;;9.20;100.00;101381.69;5077970;28;20063;-85
2022/05/11 01:55:03;;;;;;;34.35;31.85;;;;;;;9.48;100.00;101384.53;5070152;28;20048;-84
2022/05/11 01:57:50;;;;;;;35.85;33.22;;;;;;;9.22;100.00;101382.31;5076049;28;20052;-85
2022/05/11 02:02:53;;;;;;;38.88;35.78;;;;;;;8.68;100.00;101391.22;4987443;28;20116;-93
2022/05/11 02:08:10;;;;;;;35.58;33.17;;;;;;;9.24;100.00;101382.97;4995907;28;20143;-92
2022/05/11 02:10:38;;;;;;;38.83;36.13;;;;;;;9.01;100.00;101376.88;4991677;28;20039;-93
2022/05/11 02:13:07;;;;;;;39.20;36.13;;;;;;;8.70;100.00;101380.44;4984845;28;20408;-92
2022/05/11 02:15:36;;;;;;;37.25;34.38;;;;;;;9.09;100.00;101385.56;4983183;28;20050;-93
2022/05/11 02:18:08;;;;;;;35.05;32.63;;;;;;;9.12;100.00;101387.88;4996241;28;20058;-93
2022/05/11 02:20:39;;;;;;;38.30;35.42;;;;;;;9.03;100.00;101382.81;4986763;28;20143;-93
2022/05/11 02:23:06;;;;;;;34.08;31.25;;;;;;;8.72;100.00;101389.03;4982056;28;20042;-93
2022/05/11 02:25:33;;;;;;;36.58;33.83;;;;;;;8.32;100.00;101390.94;4980865;28;20555;-94
2022/05/11 02:28:05;;;;;;;36.83;33.97;;;;;;;8.39;100.00;101385.78;4991951;28;20050;-93
2022/05/11 02:30:38;;;;;;;39.53;36.70;;;;;;;8.82;100.00;101399.38;4983432;28;20106;-93
2022/05/11 02:33:07;;;;;;;37.13;34.50;;;;;;;8.90;100.00;101394.03;4987367;28;20487;-93
2022/05/11 02:35:34;;;;;;;37.17;34.30;;;;;;;8.36;100.00;101399.34;4982003;28;20128;-93
2022/05/11 02:38:04;;;;;;;36.47;33.58;;;;;;;8.30;100.00;101408.81;4988967;28;20046;-94
2022/05/11 02:40:35;;;;;;;35.65;32.95;;;;;;;8.27;100.00;101394.09;4984041;28;20062;-93
2022/05/11 02:43:11;;;;;;;36.10;33.33;;;;;;;8.82;100.00;101394.09;4987884;28;20113;-94
2022/05/11 02:45:42;;;;;;;37.22;34.40;;;;;;;8.81;100.00;101393.28;4986500;28;20059;-93
2022/05/11 02:48:19;;;;;;;37.33;34.22;;;;;;;8.56;100.00;101400.56;4996926;28;20046;-93
2022/05/11 02:50:49;;;;;;;36.05;33.13;;;;;;;8.55;100.00;101398.91;4988112;28;20063;-93
2022/05/11 02:53:17;;;;;;;37.92;34.92;;;;;;;9.12;100.00;101402.94;4987486;28;20536;-93
2022/05/11 02:55:54;;;;;;;35.35;32.75;;;;;;;9.12;100.00;101402.94;4994281;28;20070;-93
2022/05/11 02:58:26;;;;;;;35.00;32.38;;;;;;;9.11;100.00;101403.97;4988130;28;20496;-93
2022/05/11 03:01:04;;;;;;;35.63;32.85;;;;;;;8.35;100.00;101408.28;4988881;28;20054;-93
2022/05/11 03:03:35;;;;;;;38.40;35.28;;;;;;;8.40;100.00;101411.25;4986938;28;20070;-93
2022/05/11 03:06:10;;;;;;;36.58;33.67;;;;;;;8.99;100.00;101416.00;4981167;28;20109;-93
2022/05/11 03:08:38;;;;;;;35.95;33.17;;;;;;;8.28;100.00;101408.16;4987569;28;20055;-93
2022/05/11 03:11:10;;;;;;;35.25;32.53;;;;;;;8.75;100.00;101414.34;4996497;28;20495;-93
2022/05/11 03:13:38;;;;;;;33.33;30.80;;;;;;;8.95;100.00;101418.97;4992114;28;20054;-94
2022/05/11 03:16:13;;;;;;;31.35;29.15;;;;;;;8.67;100.00;101410.75;4991338;28;20064;-93
2022/05/11 03:18:42;;;;;;;32.08;29.85;;;;;;;8.25;100.00;101414.59;4992650;28;20194;-93
2022/05/11 03:21:12;;;;;;;33.67;31.13;;;;;;;7.93;100.00;101422.72;4997253;28;20055;-93
2022/05/11 03:23:39;;;;;;;33.30;30.85;;;;;;;8.67;100.00;101416.03;4994749;28;20074;-93
2022/05/11 03:26:07;;;;;;;33.65;30.80;;;;;;;9.05;100.00;101423.22;4999110;28;20118;-93
2022/05/11 03:28:40;;;;;;;32.10;29.83;;;;;;;9.04;100.00;101429.50;4999193;28;20419;-93
2022/05/11 03:31:09;;;;;;;34.08;31.42;;;;;;;9.13;100.00;101423.97;4999538;28;20059;-93
2022/05/11 03:36:24;;;;;;;35.55;32.83;;;;;;;9.23;100.00;101431.69;4999856;28;20050;-93
2022/05/11 03:39:03;;;;;;;33.75;31.35;;;;;;;9.26;100.00;101430.47;4996716;28;20057;-93
2022/05/11 03:41:45;;;;;;;35.25;32.75;;;;;;;8.98;100.00;101433.69;4993529;28;20111;-94
2022/05/11 03:44:14;;;;;;;38.08;35.17;;;;;;;9.37;100.00;101430.03;4994814;28;20047;-94
2022/05/11 03:46:43;;;;;;;36.67;33.88;;;;;;;9.15;100.00;101435.22;4993972;28;20051;-94
2022/05/11 03:49:12;;;;;;;33.47;31.05;;;;;;;9.09;100.00;101437.75;4999882;28;20050;-93
2022/05/11 03:51:40;;;;;;;31.80;29.45;;;;;;;8.91;100.00;101438.88;4986063;28;20054;-94
2022/05/11 03:54:11;;;;;;;34.40;31.70;;;;;;;8.86;100.00;101437.75;4991267;28;20511;-93
2022/05/11 03:56:38;;;;;;;34.92;32.20;;;;;;;8.65;100.00;101444.53;4992646;28;20043;-92
2022/05/11 03:59:06;;;;;;;34.10;31.60;;;;;;;9.00;100.00;101446.78;4990483;28;20055;-94
2022/05/11 04:01:33;;;;;;;33.22;30.63;;;;;;;8.91;100.00;101452.13;4991579;28;20133;-93
2022/05/11 04:04:03;;;;;;;32.22;29.83;;;;;;;8.71;100.00;101448.28;4986266;28;20050;-94
2022/05/11 04:06:30;;;;;;;34.00;31.55;;;;;;;9.14;100.00;101456.59;4978092;28;20050;-92
2022/05/11 04:08:58;;;;;;;33.17;30.70;;;;;;;9.20;100.00;101450.59;4991104;28;20054;-94
2022/05/11 04:11:30;;;;;;;46.72;42.63;;;;;;;9.43;100.00;101450.53;4992475;28;20077;-93
2022/05/11 04:13:59;;;;;;;48.37;43.87;;;;;;;9.44;100.00;101454.84;4992597;28;20047;-94
2022/05/11 04:16:26;;;;;;;33.22;30.83;;;;;;;9.42;100.00;101453.38;4982914;28;20049;-93
2022/05/11 04:18:52;;;;;;;34.13;31.73;;;;;;;9.95;100.00;101449.66;4985630;28;20046;-94
2022/05/11 04:21:22;;;;;;;33.05;30.45;;;;;;;10.34;100.00;101451.19;4979241;28;20051;-94
2022/05/11 04:23:49;;;;;;;32.53;30.02;;;;;;;10.26;100.00;101456.59;4980628;28;20050;-93
2022/05/11 04:26:16;;;;;;;32.08;29.55;;;;;;;10.21;100.00;101459.78;4985665;28;20043;-93
2022/05/11 04:28:44;;;;;;;31.90;29.35;;;;;;;10.26;100.00;101460.09;4989670;28;20063;-93
2022/05/11 04:31:13;;;;;;;32.42;30.33;;;;;;;10.71;100.00;101459.97;4983823;28;20043;-94
2022/05/11 04:33:44;;;;;;;32.95;30.70;;;;;;;10.78;100.00;101461.69;4984895;28;20046;-93
2022/05/11 04:36:11;;;;;;;31.08;29.05;;;;;;;10.53;100.00;101471.88;4985470;28;20059;-93
2022/05/11 04:38:39;;;;;;;33.17;30.98;;;;;;;11.07;100.00;101462.56;4986612;28;20053;-93
2022/05/11 04:41:07;;;;;;;32.80;30.30;;;;;;;11.28;100.00;101474.22;4988805;28;20457;-94
2022/05/11 04:43:34;;;;;;;32.28;29.90;;;;;;;11.28;100.00;101468.88;4989626;28;20046;-93
2022/05/11 04:46:01;;;;;;;32.78;30.48;;;;;;;11.24;100.00;101463.97;4976414;28;20066;-94
2022/05/11 04:48:31;;;;;;;34.05;31.75;;;;;;;11.30;100.00;101462.38;4983945;28;20059;-94
2022/05/11 04:51:01;;;;;;;34.05;31.77;;;;;;;11.23;100.00;101472.13;4979972;28;20066;-92
2022/05/11 04:53:29;;;;;;;32.50;30.40;;;;;;;11.34;100.00;101470.78;4986776;28;20050;-93
2022/05/11 04:56:00;;;;;;;32.72;30.48;;;;;;;11.62;100.00;101471.63;4980005;28;20050;-94
2022/05/11 04:58:27;;;;;;;32.45;30.10;;;;;;;11.77;100.00;101476.84;4987638;28;20042;-93
2022/05/11 05:00:55;;;;;;;32.08;29.77;;;;;;;12.19;100.00;101476.88;4975314;28;20050;-92
2022/05/11 05:03:21;;;;;;;33.50;31.30;;;;;;;12.20;100.00;101471.38;4982766;28;21443;-93
2022/05/11 05:05:48;;;;;;;32.47;30.55;;;;;;;12.30;100.00;101482.47;4986591;28;20070;-93
2022/05/11 05:08:16;;;;;;;33.50;30.92;;;;;;;12.59;100.00;101475.19;4979659;28;20476;-92
2022/05/11 05:10:44;;;;;;;34.65;31.80;;;;;;;12.74;100.00;101480.38;4985190;28;20063;-93
2022/05/11 05:13:13;;;;;;;33.25;30.25;;;;;;;12.91;100.00;101472.78;4987473;28;20074;-94
2022/05/11 05:15:42;;;;;;;35.70;32.40;;;;;;;13.27;100.00;101475.13;4983632;28;20046;-93
2022/05/11 05:18:10;;;;;;;38.08;34.30;;;;;;;13.17;100.00;101470.16;4980991;28;20515;-93
2022/05/11 05:20:41;;;;;;;38.35;34.72;;;;;;;13.24;100.00;101475.50;4979419;28;20068;-94
2022/05/11 05:23:08;;;;;;;37.93;34.13;;;;;;;13.50;100.00;101485.38;4987084;28;20042;-93
2022/05/11 05:25:35;;;;;;;37.17;34.28;;;;;;;13.81;100.00;101474.03;4979095;28;20714;-94
2022/05/11 05:33:39;;;;;;;40.03;36.58;;;;;;;14.36;100.00;101493.16;4961236;28;20050;-93
2022/05/11 05:36:06;;;;;;;40.22;35.90;;;;;;;14.36;100.00;101492.34;4979277;28;20491;-92
2022/05/11 05:38:34;;;;;;;38.53;35.10;;;;;;;14.62;100.00;101491.47;4985562;28;20101;-93
2022/05/11 05:41:01;;;;;;;39.58;35.80;;;;;;;14.58;100.00;101492.91;4988514;28;20047;-94
2022/05/11 05:43:28;;;;;;;38.53;35.40;;;;;;;14.66;100.00;101488.13;4987169;28;20049;-94
2022/05/11 05:45:56;;;;;;;39.83;37.13;;;;;;;14.45;100.00;101491.09;4985289;28;20043;-91
2022/05/11 05:48:24;;;;;;;39.45;36.70;;;;;;;14.69;100.00;101496.75;4982898;28;20058;-93
2022/05/11 05:50:51;;;;;;;37.90;35.15;;;;;;;14.88;100.00;101495.81;4979788;28;20420;-95
2022/05/11 05:53:19;;;;;;;38.78;36.00;;;;;;;15.19;100.00;101497.69;4981916;28;20062;-91
2022/05/11 05:55:48;;;;;;;37.55;34.85;;;;;;;15.31;100.00;101495.94;4980687;28;20086;-92
2022/05/11 05:58:15;;;;;;;37.33;34.75;;;;;;;15.55;100.00;101499.66;4987030;28;20049;-93
2022/05/11 06:00:41;;;;;;;38.30;35.40;;;;;;;15.91;100.00;101503.41;4982635;28;20052;-92
2022/05/11 06:03:11;;;;;;;36.25;33.85;;;;;;;16.16;100.00;101506.06;4979810;28;20058;-91
2022/05/11 06:05:38;;;;;;;36.63;33.75;;;;;;;16.13;100.00;101501.16;4982239;28;20054;-94
2022/05/11 06:08:07;;;;;;;36.10;33.70;;;;;;;16.64;100.00;101499.91;4980456;28;20047;-91
2022/05/11 06:10:39;;;;;;;33.60;31.50;;;;;;;16.85;100.00;101508.50;4991259;28;20043;-93
2022/05/11 06:13:09;;;;;;;38.00;35.60;;;;;;;16.61;100.00;101504.88;4983044;28;20055;-91
2022/05/11 06:15:39;;;;;;;36.03;33.42;;;;;;;16.49;100.00;101502.97;4986884;28;20050;-94
2022/05/11 06:18:07;;;;;;;44.58;41.75;;;;;;;17.06;100.00;101505.28;4979474;28;20065;-91
2022/05/11 06:20:40;;;;;;;39.17;36.17;;;;;;;17.22;100.00;101506.50;4983127;28;20050;-91
2022/05/11 06:23:07;;;;;;;36.40;34.00;;;;;;;17.33;100.00;101500.31;4980884;28;20050;-92
2022/05/11 06:25:39;;;;;;;40.67;38.17;;;;;;;17.50;100.00;101507.72;4981964;28;20114;-92
2022/05/11 06:28:10;;;;;;;36.15;33.67;;;;;;;17.85;100.00;101505.03;4982953;28;20109;-90
2022/05/11 06:30:40;;;;;;;40.03;37.53;;;;;;;18.30;100.00;101497.09;4982443;28;20105;-92
2022/05/11 06:33:09;;;;;;;38.35;35.72;;;;;;;18.14;100.00;101503.25;4982447;28;20051;-91
2022/05/11 06:35:39;;;;;;;38.03;35.75;;;;;;;17.94;100.00;101500.13;4985077;28;20047;-91
2022/05/11 06:38:08;;;;;;;38.28;35.50;;;;;;;18.14;100.00;101508.63;4984395;28;20054;-91
2022/05/11 06:40:38;;;;;;;36.50;33.97;;;;;;;18.26;100.00;101505.91;4991017;28;20499;-92
2022/05/11 06:43:06;;;;;;;35.88;33.67;;;;;;;18.41;100.00;101495.44;4978417;28;20038;-93
2022/05/11 06:45:37;;;;;;;37.20;34.50;;;;;;;18.79;100.00;101491.38;4980719;28;20043;-92
2022/05/11 06:48:04;;;;;;;37.75;35.25;;;;;;;19.16;100.00;101499.81;4987521;28;20513;-90
2022/05/11 06:50:31;;;;;;;34.38;32.22;;;;;;;18.97;100.00;101501.91;4988650;28;20058;-91
2022/05/11 06:53:09;;;;;;;32.05;29.85;;;;;;;18.82;100.00;101501.66;4986752;28;20047;-91
2022/05/11 07:01:14;;;;;;;34.83;32.53;;;;;;;19.50;100.00;101498.97;4961953;28;20416;-91
2022/05/11 07:03:41;;;;;;;34.88;32.72;;;;;;;19.41;100.00;101502.06;4981653;28;20042;-93
2022/05/11 07:06:08;;;;;;;32.53;30.48;;;;;;;19.28;100.00;101493.53;4983221;28;20054;-91
2022/05/11 07:08:38;;;;;;;32.95;30.85;;;;;;;19.10;100.00;101492.69;4989474;28;20047;-94
2022/05/11 07:13:55;;;;;;;34.35;32.05;;;;;;;19.10;100.00;101483.81;4985567;28;20046;-94
2022/05/11 07:16:27;;;;;;;32.55;30.15;;;;;;;19.46;100.00;101493.28;4985139;28;20121;-91
2022/05/11 07:18:54;;;;;;;31.80;29.90;;;;;;;19.63;100.00;101496.75;4984869;28;20084;-91
2022/05/11 07:21:21;;;;;;;33.95;31.67;;;;;;;19.20;100.00;101498.25;4985995;28;20294;-94
2022/05/11 07:23:49;;;;;;;33.22;31.23;;;;;;;19.74;100.00;101495.06;4984125;28;20066;-92
2022/05/11 07:26:18;;;;;;;32.42;30.45;;;;;;;20.06;100.00;101497.06;4984381;28;20058;-91
2022/05/11 07:28:45;;;;;;;32.67;30.35;;;;;;;20.68;100.00;101495.94;4990981;28;20697;-91
2022/05/11 07:31:12;;;;;;;34.50;31.85;;;;;;;20.49;100.00;101498.16;4994186;28;20497;-92
2022/05/11 07:33:39;;;;;;;33.10;30.85;;;;;;;20.40;100.00;101495.06;4994704;28;20047;-92
2022/05/11 07:36:06;;;;;;;34.15;31.88;;;;;;;20.30;100.00;101494.94;4996032;28;20101;-91
2022/05/11 07:38:38;;;;;;;33.92;31.60;;;;;;;20.86;100.00;101492.88;4986719;28;20054;-92
2022/05/11 07:41:06;;;;;;;33.95;31.95;;;;;;;20.27;100.00;101495.44;4985512;28;20054;-93
2022/05/11 07:43:34;;;;;;;33.45;31.48;;;;;;;20.16;100.00;101501.81;4993020;28;20051;-92
2022/05/11 07:46:01;;;;;;;32.72;30.60;;;;;;;19.51;100.00;101498.72;4990970;28;20054;-92
2022/05/11 07:48:28;;;;;;;30.90;29.08;;;;;;;19.67;100.00;101505.19;4989949;28;20063;-92
2022/05/11 07:50:55;;;;;;;31.23;29.23;;;;;;;20.27;100.00;101499.00;4989617;28;20055;-92
2022/05/11 07:53:22;;;;;;;31.90;30.10;;;;;;;20.25;100.00;101501.09;4984094;28;20526;-92
2022/05/11 07:59:52;;;;;;;32.72;30.80;;;;;;;20.26;100.00;101493.84;4987192;28;20062;-92
2022/05/11 08:01:22;;;;;;;32.70;30.60;;;;;;;20.24;98.22;101498.66;4973606;28;20107;-92
2022/05/11 08:03:49;;;;;;;32.88;30.88;;;;;;;20.62;100.00;101499.66;4985437;28;20053;-92
2022/05/11 08:06:16;;;;;;;31.70;29.80;;;;;;;20.71;100.00;101498.94;4984013;28;20050;-94
2022/05/11 08:08:45;;;;;;;32.42;30.30;;;;;;;20.63;100.00;101499.38;4985854;28;20527;-92
2022/05/11 08:11:14;;;;;;;32.13;30.27;;;;;;;21.08;100.00;101505.50;4990885;28;20055;-90
2022/05/11 08:13:42;;;;;;;32.90;31.10;;;;;;;21.28;100.00;101497.56;4991477;28;20047;-92
2022/05/11 08:16:09;;;;;;;33.17;31.33;;;;;;;19.93;100.00;101494.75;4982851;28;20054;-92
2022/05/11 08:18:36;;;;;;;35.00;32.70;;;;;;;20.94;100.00;101500.53;4988442;28;20051;-90
2022/05/11 08:21:03;;;;;;;33.78;31.48;;;;;;;21.47;100.00;101506.09;4988815;28;20047;-91
2022/05/11 08:23:31;;;;;;;33.42;31.10;;;;;;;21.12;100.00;101503.91;4982956;28;20050;-92
2022/05/11 08:25:59;;;;;;;34.30;32.15;;;;;;;20.68;100.00;101499.44;4985289;28;20050;-92
2022/05/11 08:28:27;;;;;;;34.60;32.42;;;;;;;20.97;100.00;101518.09;4985071;28;20480;-92
2022/05/11 08:33:42;;;;;;;36.45;34.15;;;;;;;21.24;100.00;101507.22;4982178;28;20121;-91
2022/05/11 08:36:13;;;;;;;37.35;34.75;;;;;;;21.11;100.00;101508.50;4980566;28;20074;-93
2022/05/11 08:38:42;;;;;;;36.47;33.97;;;;;;;20.74;100.00;101505.72;4983162;28;20046;-92
2022/05/11 08:41:23;;;;;;;33.83;31.50;;;;;;;20.91;100.00;101502.91;4984544;28;20063;-91
2022/05/11 08:43:50;;;;;;;34.30;31.80;;;;;;;22.22;100.00;101500.59;4976778;28;20051;-92
2022/05/11 08:46:33;;;;;;;35.60;33.22;;;;;;;21.37;100.00;101496.03;4986024;28;20055;-91
2022/05/11 08:49:03;;;;;;;35.28;32.90;;;;;;;21.20;100.00;101514.22;4977677;28;20077;-91
2022/05/11 08:51:33;;;;;;;34.15;32.00;;;;;;;20.58;100.00;101496.66;4980672;28;20047;-92
2022/05/11 08:54:15;;;;;;;33.30;31.10;;;;;;;21.50;100.00;101502.88;4986378;28;20106;-92
2022/05/11 08:56:44;;;;;;;34.05;31.75;;;;;;;20.83;94.11;101501.50;4979996;28;20050;-91
2022/05/11 08:59:17;;;;;;;34.83;32.53;;;;;;;21.26;100.00;101505.09;4992517;28;20074;-92
2022/05/11 09:01:50;;;;;;;34.35;31.67;;;;;;;21.61;100.00;101496.47;4980049;28;20053;-91
2022/05/11 09:04:33;;;;;;;35.35;33.03;;;;;;;21.25;100.00;101493.47;4982614;28;20438;-92
2022/05/11 09:07:08;;;;;;;33.42;31.42;;;;;;;20.73;100.00;101496.00;4981051;28;20047;-91
2022/05/11 09:09:39;;;;;;;32.88;30.92;;;;;;;20.18;100.00;101481.59;4978189;28;20050;-91
2022/05/11 09:12:08;;;;;;;34.53;32.15;;;;;;;21.61;100.00;101487.56;4977147;28;20125;-91
2022/05/11 09:14:39;;;;;;;34.03;31.90;;;;;;;22.69;94.63;101480.66;4981839;28;20050;-92
2022/05/11 09:17:21;;;;;;;32.85;30.88;;;;;;;22.43;93.59;101483.34;4978891;28;20512;-91
2022/05/11 09:20:00;;;;;;;33.95;31.75;;;;;;;21.62;83.76;101473.75;4980872;28;20475;-91
2022/05/11 09:22:33;;;;;;;34.60;32.38;;;;;;;22.80;90.56;101471.50;4978248;28;20058;-91
2022/05/11 09:25:02;;;;;;;;;;;;;;;22.63;91.10;101472.56;4985960;28;20050;-91
2022/05/11 09:27:31;;;;;;;35.60;33.05;;;;;;;21.58;84.71;101469.16;4983139;28;19926;-92
2022/05/11 09:30:01;;;;;;;34.03;31.90;;;;;;;22.58;84.49;101469.03;4980476;28;20061;-94
2022/05/11 09:32:39;;;;;;;35.90;33.88;;;;;;;22.25;87.60;101471.09;4980341;28;20065;-93
2022/05/11 09:35:22;;;;;;;34.67;32.58;;;;;;;22.63;82.73;101469.03;4976493;28;20066;-92
2022/05/11 09:38:02;;;;;;;35.25;33.20;;;;;;;22.87;78.34;101472.03;4985081;28;20105;-91
2022/05/11 09:40:32;;;;;;;35.63;33.47;;;;;;;22.31;85.60;101472.75;4980705;28;20054;-92
2022/05/11 09:43:01;;;;;;;33.75;31.55;;;;;;;22.30;84.01;101465.72;4983764;28;20077;-91
2022/05/11 09:45:43;;;;;;;34.35;32.45;;;;;;;22.63;84.99;101453.63;4986001;28;20045;-93
2022/05/11 09:48:22;;;;;;;37.30;35.30;;;;;;;22.37;85.34;101454.63;4986538;28;20138;-91
2022/05/11 09:50:54;;;;;;;34.35;32.42;;;;;;;21.93;90.20;101461.22;4977198;28;20298;-92
2022/05/11 09:53:31;;;;;;;34.70;32.65;;;;;;;21.78;78.83;101446.81;4982186;28;20055;-91
2022/05/11 09:56:11;;;;;;;35.20;33.20;;;;;;;22.53;92.85;101445.47;4977558;28;20061;-94
2022/05/11 09:58:39;;;;;;;34.72;32.72;;;;;;;22.71;82.59;101440.63;4984627;28;20046;-91
2022/05/11 10:01:11;;;;;;;35.13;33.08;;;;;;;22.80;78.29;101447.91;4978808;28;20102;-92
2022/05/11 10:03:45;;;;;;;35.58;33.67;;;;;;;22.60;83.35;101446.03;4978947;28;20038;-91
2022/05/11 10:06:15;;;;;;;33.88;32.08;;;;;;;23.77;80.08;101450.53;4986739;28;20054;-94
2022/05/11 10:08:45;;;;;;;34.22;32.33;;;;;;;22.06;74.86;101448.28;4983308;28;20047;-92
2022/05/11 10:11:18;;;;;;;34.45;32.38;;;;;;;23.18;70.27;101429.53;4985042;28;20062;-91
2022/05/11 10:13:53;;;;;;;32.88;30.90;;;;;;;22.94;81.63;101436.56;4980216;28;20050;-92
2022/05/11 10:22:22;;;;;;;35.17;33.17;;;;;;;24.01;78.28;101425.50;4981914;28;20046;-92
2022/05/11 10:25:14;;;;;;;36.08;34.33;;;;;;;22.53;72.40;101426.50;4986379;28;20110;-93
2022/05/11 10:27:46;;;;;;;33.90;31.70;;;;;;;23.19;71.66;101416.78;4982456;28;20058;-93
2022/05/11 10:30:22;;;;;;;34.60;32.42;;;;;;;21.63;80.72;101404.28;4983758;28;20083;-93
2022/05/11 10:33:15;;;;;;;35.33;33.13;;;;;;;23.75;78.41;101413.94;4984269;28;20079;-93
2022/05/11 10:35:59;;;;;;;34.38;32.25;;;;;;;21.17;85.22;101412.91;4982761;28;20046;-93
2022/05/11 10:38:48;;;;;;;35.63;33.38;;;;;;;23.27;85.37;101411.63;4976373;28;20050;-92
2022/05/11 10:41:32;;;;;;;34.72;32.58;;;;;;;23.63;83.26;101416.97;4977741;28;20074;-93
2022/05/11 10:44:07;;;;;;;36.90;34.70;;;;;;;22.39;82.51;101411.88;4979519;28;20480;-93
2022/05/11 10:46:41;;;;;;;37.95;35.95;;;;;;;22.15;76.87;101401.53;4979243;28;20050;-93
2022/05/11 10:49:37;;;;;;;34.72;32.65;;;;;;;24.11;76.32;101394.78;4977771;28;20046;-91
2022/05/11 10:52:27;;;;;;;36.88;34.80;;;;;;;23.11;78.53;101395.66;4972413;28;20055;-93
2022/05/11 10:55:18;;;;;;;35.83;33.83;;;;;;;23.77;75.59;101393.59;4977332;28;20468;-93
2022/05/11 10:57:55;;;;;;;34.42;32.15;;;;;;;24.42;81.65;101398.16;4977527;28;20476;-91
2022/05/11 11:00:23;;;;;;;35.42;33.20;;;;;;;24.32;72.44;101392.75;4971999;28;20424;-93
2022/05/11 11:03:24;;;;;;;36.92;34.72;;;;;;;24.95;75.53;101392.00;4976793;28;20086;-92
2022/05/11 11:09:06;;;;;;;36.30;34.05;;;;;;;23.13;74.98;101393.50;4985583;28;20627;-92
2022/05/11 11:11:43;;;;;;;35.92;33.90;;;;;;;24.04;74.43;101389.66;4986716;28;20046;-92
2022/05/11 11:14:13;;;;;;;36.05;33.70;;;;;;;23.54;74.16;101386.91;4987800;28;20058;-92
2022/05/11 11:16:44;;;;;;;33.85;31.75;;;;;;;23.19;71.83;101393.22;4980725;28;20056;-92
2022/05/11 11:19:14;;;;;;;34.67;32.47;;;;;;;23.45;75.05;101388.56;4985147;28;20435;-92
2022/05/11 11:21:42;;;;;;;34.97;32.72;;;;;;;23.29;70.21;101378.81;4986040;28;20054;-93
2022/05/11 11:24:22;;;;;;;34.97;32.88;;;;;;;22.27;83.16;101376.97;4987393;28;20065;-91
2022/05/11 11:26:54;;;;;;;35.70;33.60;;;;;;;24.65;73.35;101374.88;4980646;28;20418;-94
2022/05/11 11:29:28;;;;;;;35.75;33.25;;;;;;;25.70;72.14;101373.25;4981968;28;20074;-94
2022/05/11 11:32:13;;;;;;;36.78;33.92;;;;;;;22.93;76.41;101372.63;4985369;28;20051;-93
2022/05/11 11:34:48;;;;;;;35.40;33.30;;;;;;;24.52;70.56;101373.63;4982939;28;20109;-92
2022/05/11 11:37:41;;;;;;;35.92;33.22;;;;;;;24.81;71.99;101379.09;4989653;28;20078;-93
2022/05/11 11:40:32;;;;;;;34.70;32.50;;;;;;;23.00;71.27;101373.22;4986392;28;20051;-92
2022/05/11 11:43:38;;;;;;;35.85;33.75;;;;;;;24.57;68.80;101375.47;4985854;28;20051;-94
2022/05/11 11:46:03;;;;;;;36.17;34.13;;;;;;;25.07;70.14;101365.25;4986342;28;20401;-92
2022/05/11 11:48:30;;;;;;;35.65;33.33;;;;;;;26.39;66.00;101357.34;4979933;28;20500;-94
2022/05/11 11:51:01;;;;;;;38.35;36.17;;;;;;;22.71;70.29;101356.69;4988544;28;20042;-91
2022/05/11 11:53:34;;;;;;;40.00;37.65;;;;;;;24.37;76.58;101362.88;4990776;28;20058;-94
2022/05/11 11:56:34;;;;;;;34.53;32.22;;;;;;;23.04;75.10;101358.84;4981633;28;20058;-93
2022/05/11 11:59:07;;;;;;;33.38;31.23;;;;;;;24.91;69.29;101351.84;4988355;28;20061;-94
2022/05/11 12:01:39;;;;;;;33.60;31.60;;;;;;;23.25;68.55;101348.75;4976219;28;20050;-93
2022/05/11 12:04:15;;;;;;;35.78;33.58;;;;;;;23.64;70.05;101344.56;4983755;28;20050;-91
2022/05/11 12:15:24;;;;;;;33.90;31.55;;;;;;;24.81;64.35;101340.25;4979334;28;20053;-90
2022/05/11 12:17:54;;;;;;;34.55;32.55;;;;;;;23.37;72.02;101339.53;4983732;28;20062;-94
2022/05/11 12:20:24;;;;;;;36.38;33.70;;;;;;;23.91;73.81;101344.19;4985866;28;20483;-93
2022/05/11 12:22:53;;;;;;;34.15;31.80;;;;;;;23.94;65.04;101344.44;4973886;28;20487;-94